Time;durP1;ratioP1;P1;durP2;ratioP2;P2;SDS_P1;SDS_P2;PMS_P1;PMS_P2;Temp;Humidity;BMP_temperature;BMP_pressure;BME280_temperature;BME280_humidity;BME280_pressure;Samples;Min_cycle;Max_cycle;Signal;HPM_P1;HPM_P2
2023/05/14 00:00:28;;;;;;;8.80;7.80;;;;;;;;;;5035263;28;20930;-81
2023/05/14 00:02:54;;;;;;;7.97;7.27;;;;;;;;;;5034795;28;20483;-81
2023/05/14 00:05:21;;;;;;;8.13;7.37;;;;;;;;;;5034756;28;20453;-81
2023/05/14 00:07:47;;;;;;;8.50;7.67;;;;;;;;;;5034692;28;20469;-81
2023/05/14 00:10:16;;;;;;;7.83;7.07;;;;;;;;;;5045579;28;20543;-81
2023/05/14 00:12:42;;;;;;;7.33;6.63;;;;;;;;;;5025472;28;20520;-81
2023/05/14 00:15:09;;;;;;;8.50;7.70;;;;;;;;;;5030176;28;20965;-82
2023/05/14 00:17:36;;;;;;;8.80;8.00;;;;;;;;;;5034529;28;20858;-81
2023/05/14 00:20:05;;;;;;;9.77;8.87;;;;;;;;;;5036340;28;20452;-81
2023/05/14 00:22:32;;;;;;;8.00;6.77;;;;;;;;;;5039625;28;21035;-81
2023/05/14 00:24:58;;;;;;;8.47;7.60;;;;;;;;;;5033604;28;20455;-82
2023/05/14 00:27:26;;;;;;;8.67;7.93;;;;;;;;;;5038450;28;20484;-81
2023/05/14 00:29:52;;;;;;;7.90;7.00;;;;;;;;;;5037894;28;20462;-81
2023/05/14 00:32:18;;;;;;;8.37;7.67;;;;;;;;;;5032229;28;20846;-81
2023/05/14 00:34:45;;;;;;;8.40;7.60;;;;;;;;;;5034956;28;20441;-81
2023/05/14 00:37:11;;;;;;;9.53;8.50;;;;;;;;;;5034468;28;20473;-81
2023/05/14 00:39:37;;;;;;;11.03;8.40;;;;;;;;;;5033985;28;20453;-82
2023/05/14 00:42:04;;;;;;;8.13;7.33;;;;;;;;;;5037712;28;20477;-82
2023/05/14 00:44:31;;;;;;;9.87;8.83;;;;;;;;;;5036391;28;20452;-81
2023/05/14 00:46:58;;;;;;;9.03;8.13;;;;;;;;;;5030661;28;20906;-81
2023/05/14 00:49:25;;;;;;;9.47;8.50;;;;;;;;;;5034517;28;20499;-82
2023/05/14 00:51:53;;;;;;;12.37;8.00;;;;;;;;;;5035113;28;20997;-82
2023/05/14 00:54:20;;;;;;;8.30;7.50;;;;;;;;;;5034738;28;20445;-81
2023/05/14 00:56:47;;;;;;;9.17;8.27;;;;;;;;;;5038323;28;20468;-82
2023/05/14 00:59:13;;;;;;;9.23;7.70;;;;;;;;;;5033261;28;20455;-82
2023/05/14 01:01:41;;;;;;;8.90;7.37;;;;;;;;;;5032077;28;20480;-82
2023/05/14 01:04:07;;;;;;;8.80;8.10;;;;;;;;;;5030867;28;20931;-81
2023/05/14 01:06:38;;;;;;;9.10;8.23;;;;;;;;;;5035420;28;20468;-82
2023/05/14 01:09:08;;;;;;;8.53;7.80;;;;;;;;;;5037463;28;20992;-83
2023/05/14 01:11:39;;;;;;;9.60;8.57;;;;;;;;;;5033293;28;21004;-81
2023/05/14 01:14:13;;;;;;;11.80;8.80;;;;;;;;;;5033155;28;20816;-81
2023/05/14 01:16:40;;;;;;;11.33;10.23;;;;;;;;;;5033588;28;21016;-82
2023/05/14 01:19:10;;;;;;;9.87;8.87;;;;;;;;;;5034162;28;20449;-81
2023/05/14 01:21:39;;;;;;;12.13;9.50;;;;;;;;;;5037448;28;20876;-81
2023/05/14 01:24:06;;;;;;;9.63;8.77;;;;;;;;;;5036723;28;20453;-81
2023/05/14 01:26:32;;;;;;;8.80;8.03;;;;;;;;;;5032851;28;20469;-81
2023/05/14 01:29:01;;;;;;;11.00;9.90;;;;;;;;;;5037269;28;20484;-81
2023/05/14 01:31:31;;;;;;;10.00;9.10;;;;;;;;;;5034248;28;20464;-82
2023/05/14 01:33:58;;;;;;;9.43;8.53;;;;;;;;;;5035194;28;20444;-81
2023/05/14 01:36:24;;;;;;;9.87;7.37;;;;;;;;;;5041415;28;20467;-81
2023/05/14 01:38:52;;;;;;;10.70;9.60;;;;;;;;;;5036525;28;20925;-81
2023/05/14 01:41:20;;;;;;;10.87;9.40;;;;;;;;;;5037667;28;20996;-81
2023/05/14 01:43:46;;;;;;;10.30;9.30;;;;;;;;;;5033548;28;20899;-81
2023/05/14 01:46:12;;;;;;;9.60;8.70;;;;;;;;;;5032853;28;20475;-82
2023/05/14 01:48:40;;;;;;;15.67;10.53;;;;;;;;;;5033714;28;20496;-81
2023/05/14 01:51:06;;;;;;;10.77;9.20;;;;;;;;;;5032599;28;20480;-81
2023/05/14 01:53:33;;;;;;;9.70;8.80;;;;;;;;;;5033192;28;20476;-81
2023/05/14 01:56:01;;;;;;;10.43;9.37;;;;;;;;;;5033917;28;20951;-81
2023/05/14 01:58:27;;;;;;;10.50;9.70;;;;;;;;;;5026988;28;20445;-81
2023/05/14 02:00:54;;;;;;;9.50;8.50;;;;;;;;;;5025789;28;20460;-82
2023/05/14 02:03:20;;;;;;;9.27;8.37;;;;;;;;;;5031245;28;21002;-81
2023/05/14 02:05:47;;;;;;;9.87;8.87;;;;;;;;;;5030049;28;20469;-82
2023/05/14 02:08:14;;;;;;;10.10;8.73;;;;;;;;;;5035873;28;20489;-81
2023/05/14 02:10:40;;;;;;;9.40;8.60;;;;;;;;;;5030853;28;20478;-81
2023/05/14 02:13:09;;;;;;;9.87;9.00;;;;;;;;;;5023371;28;20477;-81
2023/05/14 02:15:35;;;;;;;9.53;8.67;;;;;;;;;;5033213;28;20559;-81
2023/05/14 02:18:02;;;;;;;9.67;8.77;;;;;;;;;;5033530;28;20477;-82
2023/05/14 02:20:28;;;;;;;9.13;8.30;;;;;;;;;;5030561;28;20445;-81
2023/05/14 02:22:54;;;;;;;9.93;9.10;;;;;;;;;;5030185;28;20993;-82
2023/05/14 02:25:20;;;;;;;11.43;8.90;;;;;;;;;;5038705;28;20445;-82
2023/05/14 02:27:47;;;;;;;12.60;10.23;;;;;;;;;;5032160;28;20469;-81
2023/05/14 02:30:15;;;;;;;10.57;9.67;;;;;;;;;;5032534;28;20449;-81
2023/05/14 02:32:41;;;;;;;10.87;9.87;;;;;;;;;;5036973;28;20484;-81
2023/05/14 02:35:08;;;;;;;9.63;8.63;;;;;;;;;;5033810;28;20455;-81
2023/05/14 02:37:34;;;;;;;15.20;9.87;;;;;;;;;;5032636;28;20461;-81
2023/05/14 02:40:01;;;;;;;9.90;9.00;;;;;;;;;;5033091;28;20452;-81
2023/05/14 02:42:27;;;;;;;9.93;9.10;;;;;;;;;;5035353;28;20973;-81
2023/05/14 02:44:53;;;;;;;10.00;9.10;;;;;;;;;;5034017;28;20459;-81
2023/05/14 02:47:21;;;;;;;9.23;8.43;;;;;;;;;;5037588;28;20993;-81
2023/05/14 02:49:47;;;;;;;9.73;8.83;;;;;;;;;;5034536;28;20477;-81
2023/05/14 02:52:14;;;;;;;11.13;9.30;;;;;;;;;;5034208;28;20464;-81
2023/05/14 02:54:40;;;;;;;11.50;10.47;;;;;;;;;;5036429;28;20464;-81
2023/05/14 02:57:06;;;;;;;11.70;10.07;;;;;;;;;;5034077;28;20473;-81
2023/05/14 02:59:32;;;;;;;12.90;10.93;;;;;;;;;;5033281;28;20448;-82
2023/05/14 03:01:59;;;;;;;13.00;10.63;;;;;;;;;;5027948;28;20473;-81
2023/05/14 03:04:28;;;;;;;11.10;10.10;;;;;;;;;;5059654;23;20499;-78
2023/05/14 03:06:55;;;;;;;10.93;9.77;;;;;;;;;;5032186;28;20473;-79
2023/05/14 03:09:22;;;;;;;10.17;9.20;;;;;;;;;;5032670;28;20484;-79
2023/05/14 03:11:48;;;;;;;11.30;10.20;;;;;;;;;;5034517;28;20479;-78
2023/05/14 03:14:16;;;;;;;11.33;10.20;;;;;;;;;;5032779;28;21008;-79
2023/05/14 03:16:43;;;;;;;11.00;10.00;;;;;;;;;;5033533;28;20529;-78
2023/05/14 03:19:10;;;;;;;10.53;9.53;;;;;;;;;;5032563;28;20445;-78
2023/05/14 03:21:38;;;;;;;14.80;10.10;;;;;;;;;;5034102;28;20482;-78
2023/05/14 03:24:04;;;;;;;11.30;10.20;;;;;;;;;;5043764;28;20468;-78
2023/05/14 03:26:30;;;;;;;12.13;10.47;;;;;;;;;;5038397;28;20997;-78
2023/05/14 03:28:57;;;;;;;14.83;10.97;;;;;;;;;;5033796;28;20480;-78
2023/05/14 03:31:25;;;;;;;14.03;11.60;;;;;;;;;;5035502;28;20468;-78
2023/05/14 03:33:51;;;;;;;11.00;9.97;;;;;;;;;;5039712;28;20468;-78
2023/05/14 03:36:18;;;;;;;13.23;11.83;;;;;;;;;;5036896;28;20479;-79
2023/05/14 03:38:46;;;;;;;12.97;10.93;;;;;;;;;;5033011;28;20448;-79
2023/05/14 03:41:12;;;;;;;14.00;10.47;;;;;;;;;;5035206;28;20970;-78
2023/05/14 03:43:38;;;;;;;12.10;10.93;;;;;;;;;;5040967;28;20472;-78
2023/05/14 03:46:10;;;;;;;12.53;11.23;;;;;;;;;;5035287;28;20463;-78
2023/05/14 03:48:36;;;;;;;12.07;10.77;;;;;;;;;;5035423;28;20484;-78
2023/05/14 03:51:03;;;;;;;11.87;10.03;;;;;;;;;;5035273;28;20816;-78
2023/05/14 03:53:29;;;;;;;12.10;10.83;;;;;;;;;;5042818;28;20443;-78
2023/05/14 03:55:57;;;;;;;11.23;10.20;;;;;;;;;;5035414;28;20935;-79
2023/05/14 03:58:23;;;;;;;11.03;9.83;;;;;;;;;;5035980;28;20848;-78
2023/05/14 04:00:51;;;;;;;12.43;11.13;;;;;;;;;;5042038;28;20445;-79
2023/05/14 04:03:17;;;;;;;12.33;11.20;;;;;;;;;;5035440;28;20445;-79
2023/05/14 04:05:45;;;;;;;12.50;11.30;;;;;;;;;;5035740;28;20457;-78
2023/05/14 04:08:12;;;;;;;11.70;10.57;;;;;;;;;;5013253;28;20896;-78
2023/05/14 04:10:39;;;;;;;12.23;10.97;;;;;;;;;;5035564;28;20480;-78
2023/05/14 04:13:07;;;;;;;11.57;10.50;;;;;;;;;;5034633;28;20472;-79
2023/05/14 04:15:34;;;;;;;13.03;11.20;;;;;;;;;;5035276;28;20495;-78
2023/05/14 04:18:00;;;;;;;13.03;11.67;;;;;;;;;;5034400;28;20969;-78
2023/05/14 04:20:27;;;;;;;12.27;11.07;;;;;;;;;;5035282;28;20541;-79
2023/05/14 04:22:53;;;;;;;11.30;10.30;;;;;;;;;;5019867;28;20476;-78
2023/05/14 04:25:20;;;;;;;11.93;10.93;;;;;;;;;;5038565;28;20473;-78
2023/05/14 04:27:46;;;;;;;12.40;11.10;;;;;;;;;;5034826;28;20495;-78
2023/05/14 04:30:14;;;;;;;13.27;11.17;;;;;;;;;;5035868;28;20998;-78
2023/05/14 04:32:41;;;;;;;13.50;11.70;;;;;;;;;;5035104;28;20480;-78
2023/05/14 04:35:10;;;;;;;12.20;10.90;;;;;;;;;;5037974;28;20475;-79
2023/05/14 04:37:36;;;;;;;12.10;10.90;;;;;;;;;;5034114;28;20472;-78
2023/05/14 04:40:04;;;;;;;12.90;11.03;;;;;;;;;;5037307;28;20452;-78
2023/05/14 04:42:31;;;;;;;11.97;10.90;;;;;;;;;;5043758;28;20476;-79
2023/05/14 04:44:58;;;;;;;18.17;11.70;;;;;;;;;;5041323;28;20466;-78
2023/05/14 04:47:26;;;;;;;11.57;10.47;;;;;;;;;;5033834;28;20468;-79
2023/05/14 04:49:52;;;;;;;12.73;11.60;;;;;;;;;;5040149;28;20489;-78
2023/05/14 04:52:19;;;;;;;11.33;10.13;;;;;;;;;;5034120;28;20492;-78
2023/05/14 04:54:46;;;;;;;12.30;11.13;;;;;;;;;;5015553;28;20464;-78
2023/05/14 04:57:12;;;;;;;12.20;9.13;;;;;;;;;;5033796;28;21017;-79
2023/05/14 04:59:39;;;;;;;11.73;10.53;;;;;;;;;;5034455;28;20452;-78
2023/05/14 05:02:07;;;;;;;12.70;11.03;;;;;;;;;;5037767;28;20464;-78
2023/05/14 05:04:35;;;;;;;11.83;10.60;;;;;;;;;;5036626;28;20496;-79
2023/05/14 05:07:02;;;;;;;11.77;10.40;;;;;;;;;;5034637;28;20472;-78
2023/05/14 05:09:28;;;;;;;11.57;10.47;;;;;;;;;;5022323;28;21030;-79
2023/05/14 05:11:55;;;;;;;11.77;10.57;;;;;;;;;;5032582;28;20468;-78
2023/05/14 05:14:21;;;;;;;12.00;10.87;;;;;;;;;;5032549;28;20485;-79
2023/05/14 05:16:48;;;;;;;11.87;10.60;;;;;;;;;;5033711;28;20472;-79
2023/05/14 05:19:14;;;;;;;15.17;11.97;;;;;;;;;;5035171;28;20452;-79
2023/05/14 05:21:42;;;;;;;11.90;10.50;;;;;;;;;;5033479;28;20468;-79
2023/05/14 05:24:08;;;;;;;10.37;9.37;;;;;;;;;;5034780;28;20993;-78
2023/05/14 05:26:36;;;;;;;13.67;10.00;;;;;;;;;;5032764;28;20472;-79
2023/05/14 05:29:03;;;;;;;13.03;10.00;;;;;;;;;;5033549;28;21075;-79
2023/05/14 05:31:29;;;;;;;11.63;10.03;;;;;;;;;;5026872;28;20472;-79
2023/05/14 05:33:56;;;;;;;11.33;10.33;;;;;;;;;;5035559;28;20477;-79
2023/05/14 05:36:22;;;;;;;11.73;10.70;;;;;;;;;;5040197;28;20847;-79
2023/05/14 05:38:50;;;;;;;12.03;10.90;;;;;;;;;;5040804;28;20946;-79
2023/05/14 05:41:18;;;;;;;12.13;10.13;;;;;;;;;;5040931;28;20487;-79
2023/05/14 05:43:44;;;;;;;10.97;9.90;;;;;;;;;;5033910;28;20471;-78
2023/05/14 05:46:12;;;;;;;10.87;9.90;;;;;;;;;;5032294;28;20475;-78
2023/05/14 05:48:38;;;;;;;11.13;10.13;;;;;;;;;;5034211;28;20453;-78
2023/05/14 05:51:06;;;;;;;11.33;10.20;;;;;;;;;;5020993;28;20477;-79
2023/05/14 05:53:32;;;;;;;11.27;10.17;;;;;;;;;;5028356;28;20472;-79
2023/05/14 05:56:00;;;;;;;10.70;9.60;;;;;;;;;;5034124;28;20441;-78
2023/05/14 05:58:26;;;;;;;14.83;11.40;;;;;;;;;;5040093;28;20452;-78
2023/05/14 06:00:53;;;;;;;12.47;11.20;;;;;;;;;;5041674;28;20437;-78
2023/05/14 06:03:20;;;;;;;11.93;10.40;;;;;;;;;;5041038;28;20452;-79
2023/05/14 06:05:48;;;;;;;12.03;10.93;;;;;;;;;;5033495;28;20491;-79
2023/05/14 06:08:14;;;;;;;16.00;11.03;;;;;;;;;;5030808;28;20458;-78
2023/05/14 06:10:41;;;;;;;13.47;10.60;;;;;;;;;;5032959;28;20939;-78
2023/05/14 06:13:09;;;;;;;13.33;11.97;;;;;;;;;;5031588;28;20477;-79
2023/05/14 06:15:35;;;;;;;13.47;11.80;;;;;;;;;;5035882;28;20849;-78
2023/05/14 06:18:02;;;;;;;12.13;10.90;;;;;;;;;;5038906;28;20464;-79
2023/05/14 06:20:28;;;;;;;12.53;11.33;;;;;;;;;;5041446;28;20445;-79
2023/05/14 06:22:54;;;;;;;12.67;11.37;;;;;;;;;;5032163;28;20580;-79
2023/05/14 06:25:21;;;;;;;11.77;10.57;;;;;;;;;;5032928;28;20838;-78
2023/05/14 06:27:47;;;;;;;13.23;11.90;;;;;;;;;;5031981;28;20472;-79
2023/05/14 06:30:15;;;;;;;13.90;11.50;;;;;;;;;;5034012;28;20496;-79
2023/05/14 06:32:42;;;;;;;16.13;10.90;;;;;;;;;;5034262;28;20450;-79
2023/05/14 06:35:08;;;;;;;13.80;11.50;;;;;;;;;;5038114;28;20472;-79
2023/05/14 06:37:35;;;;;;;11.93;10.73;;;;;;;;;;5032193;28;20484;-78
2023/05/14 06:40:02;;;;;;;12.20;10.47;;;;;;;;;;5037630;28;20451;-78
2023/05/14 06:42:28;;;;;;;12.57;11.27;;;;;;;;;;5037123;28;20537;-79
2023/05/14 06:44:55;;;;;;;15.63;11.20;;;;;;;;;;5033490;28;20468;-79
2023/05/14 06:47:22;;;;;;;14.13;11.00;;;;;;;;;;5032264;28;20484;-78
2023/05/14 06:49:49;;;;;;;13.30;10.77;;;;;;;;;;5032715;28;20495;-79
2023/05/14 06:52:16;;;;;;;12.50;11.10;;;;;;;;;;5033502;28;20469;-79
2023/05/14 06:54:43;;;;;;;12.00;10.80;;;;;;;;;;5032719;28;20464;-79
2023/05/14 06:57:09;;;;;;;12.50;11.30;;;;;;;;;;5040250;28;20468;-79
2023/05/14 06:59:35;;;;;;;13.20;11.60;;;;;;;;;;5040512;28;20777;-79
2023/05/14 07:02:02;;;;;;;13.40;11.20;;;;;;;;;;5041570;28;20465;-78
2023/05/14 07:04:29;;;;;;;12.80;10.77;;;;;;;;;;5040263;28;20458;-79
2023/05/14 07:06:56;;;;;;;19.77;12.30;;;;;;;;;;5035432;28;20469;-79
2023/05/14 07:09:22;;;;;;;13.27;11.87;;;;;;;;;;5039655;28;20426;-79
2023/05/14 07:11:49;;;;;;;13.00;10.53;;;;;;;;;;5036010;28;20443;-78
2023/05/14 07:14:15;;;;;;;12.77;11.40;;;;;;;;;;5041777;28;20446;-79
2023/05/14 07:16:42;;;;;;;13.23;11.30;;;;;;;;;;5033371;28;20455;-78
2023/05/14 07:19:08;;;;;;;14.77;11.03;;;;;;;;;;5036639;28;20419;-79
2023/05/14 07:21:36;;;;;;;13.33;11.20;;;;;;;;;;5035829;28;20451;-79
2023/05/14 07:24:02;;;;;;;17.93;12.47;;;;;;;;;;5036064;28;20451;-79
2023/05/14 07:26:29;;;;;;;13.87;10.33;;;;;;;;;;5026432;28;20849;-78
2023/05/14 07:28:55;;;;;;;13.10;10.50;;;;;;;;;;5029064;28;20456;-78
2023/05/14 07:31:22;;;;;;;14.40;10.80;;;;;;;;;;5036597;28;20841;-78
2023/05/14 07:33:48;;;;;;;13.27;10.10;;;;;;;;;;5037112;28;20953;-78
2023/05/14 07:36:15;;;;;;;12.13;10.83;;;;;;;;;;5040477;28;20442;-78
2023/05/14 07:38:42;;;;;;;14.00;10.97;;;;;;;;;;5032665;28;20863;-78
2023/05/14 07:41:10;;;;;;;13.00;9.77;;;;;;;;;;5028914;28;20436;-78
2023/05/14 07:43:37;;;;;;;13.40;10.60;;;;;;;;;;5045961;28;20450;-78
2023/05/14 07:46:03;;;;;;;17.50;10.60;;;;;;;;;;5032309;28;20469;-79
2023/05/14 07:48:30;;;;;;;15.20;11.13;;;;;;;;;;5036691;28;20922;-78
2023/05/14 07:50:56;;;;;;;16.97;11.40;;;;;;;;;;5038550;28;20458;-79
2023/05/14 07:53:23;;;;;;;16.07;11.97;;;;;;;;;;5017554;28;20450;-78
2023/05/14 07:55:51;;;;;;;15.03;10.87;;;;;;;;;;5037165;28;20452;-78
2023/05/14 07:58:18;;;;;;;15.73;10.27;;;;;;;;;;5034819;28;20487;-80
2023/05/14 08:00:44;;;;;;;20.77;11.70;;;;;;;;;;5035181;28;20467;-79
2023/05/14 08:03:10;;;;;;;15.23;11.30;;;;;;;;;;5035891;28;20845;-80
2023/05/14 08:05:37;;;;;;;13.17;11.80;;;;;;;;;;5035282;28;20481;-79
2023/05/14 08:08:03;;;;;;;12.07;10.83;;;;;;;;;;5034004;28;20471;-79
2023/05/14 08:10:30;;;;;;;14.53;11.23;;;;;;;;;;5036229;28;20977;-80
2023/05/14 08:12:58;;;;;;;18.10;11.50;;;;;;;;;;5037003;28;20467;-79
2023/05/14 08:15:26;;;;;;;14.30;9.83;;;;;;;;;;5035241;28;20481;-79
2023/05/14 08:17:52;;;;;;;10.97;9.80;;;;;;;;;;5036618;28;20469;-79
2023/05/14 08:20:19;;;;;;;14.50;9.90;;;;;;;;;;5035118;28;20444;-79
2023/05/14 08:22:45;;;;;;;10.80;9.07;;;;;;;;;;5036091;28;20472;-80
2023/05/14 08:25:12;;;;;;;11.37;10.03;;;;;;;;;;5034781;28;21001;-79
2023/05/14 08:27:39;;;;;;;11.20;9.27;;;;;;;;;;5036889;28;20843;-77
2023/05/14 08:30:07;;;;;;;12.53;10.00;;;;;;;;;;5034873;28;21001;-79
2023/05/14 08:32:34;;;;;;;10.20;8.27;;;;;;;;;;5033752;28;20473;-77
2023/05/14 08:35:00;;;;;;;9.00;8.10;;;;;;;;;;5034427;28;20970;-80
2023/05/14 08:37:26;;;;;;;13.23;7.87;;;;;;;;;;5038916;28;20472;-78
2023/05/14 08:39:53;;;;;;;10.30;8.30;;;;;;;;;;5036640;28;20449;-78
2023/05/14 08:42:20;;;;;;;12.30;9.10;;;;;;;;;;5034188;28;20479;-78
2023/05/14 08:44:48;;;;;;;9.27;8.27;;;;;;;;;;5034743;28;20473;-78
2023/05/14 08:47:18;;;;;;;10.47;7.63;;;;;;;;;;5034253;28;20472;-79
2023/05/14 08:49:46;;;;;;;7.57;6.87;;;;;;;;;;5034101;28;20938;-78
2023/05/14 08:52:13;;;;;;;7.07;6.40;;;;;;;;;;5034066;28;20487;-78
2023/05/14 08:54:40;;;;;;;8.63;6.17;;;;;;;;;;5016695;28;20997;-78
2023/05/14 08:57:09;;;;;;;7.87;6.07;;;;;;;;;;5011546;28;20483;-78
2023/05/14 08:59:35;;;;;;;7.63;6.17;;;;;;;;;;5036641;28;20444;-78
2023/05/14 09:02:03;;;;;;;6.43;5.80;;;;;;;;;;5034445;28;20483;-78
2023/05/14 09:04:32;;;;;;;6.33;5.50;;;;;;;;;;5016185;28;20526;-78
2023/05/14 09:06:59;;;;;;;6.37;5.77;;;;;;;;;;5034232;28;20472;-78
2023/05/14 09:09:26;;;;;;;6.60;5.53;;;;;;;;;;5015345;28;20502;-77
2023/05/14 09:11:53;;;;;;;6.77;5.70;;;;;;;;;;5030207;28;20480;-79
2023/05/14 09:14:20;;;;;;;8.20;5.50;;;;;;;;;;5033843;28;20468;-78
2023/05/14 09:16:47;;;;;;;5.80;5.30;;;;;;;;;;5033433;28;20479;-77
2023/05/14 09:19:14;;;;;;;6.40;5.43;;;;;;;;;;5032054;28;20540;-79
2023/05/14 09:21:42;;;;;;;9.03;5.10;;;;;;;;;;5033632;28;20472;-80
2023/05/14 09:24:08;;;;;;;5.10;4.70;;;;;;;;;;5035265;28;20492;-79
2023/05/14 09:26:35;;;;;;;5.50;5.10;;;;;;;;;;5033144;28;20475;-79
2023/05/14 09:29:02;;;;;;;8.50;5.70;;;;;;;;;;5034532;28;20946;-78
2023/05/14 09:31:30;;;;;;;6.30;5.70;;;;;;;;;;5033061;28;20472;-78
2023/05/14 09:33:56;;;;;;;7.27;6.57;;;;;;;;;;5029654;28;20977;-78
2023/05/14 09:36:23;;;;;;;6.90;5.50;;;;;;;;;;5037171;28;20463;-78
2023/05/14 09:38:51;;;;;;;6.10;5.50;;;;;;;;;;5017591;28;20445;-78
2023/05/14 09:41:25;;;;;;;5.90;5.30;;;;;;;;;;5100417;27;21026;-78
2023/05/14 09:43:53;;;;;;;7.43;5.77;;;;;;;;;;5076999;28;20467;-78
2023/05/14 09:46:20;;;;;;;7.13;6.43;;;;;;;;;;5069169;28;20558;-79
2023/05/14 09:48:46;;;;;;;6.17;5.27;;;;;;;;;;5072507;28;20453;-79
2023/05/14 09:51:13;;;;;;;7.10;5.70;;;;;;;;;;5068769;28;20471;-79
2023/05/14 09:53:40;;;;;;;5.90;5.40;;;;;;;;;;5075593;28;20466;-79
2023/05/14 09:56:06;;;;;;;5.73;5.23;;;;;;;;;;5078458;28;20882;-79
2023/05/14 09:58:34;;;;;;;8.23;5.53;;;;;;;;;;5084377;28;20453;-78
2023/05/14 10:01:01;;;;;;;7.97;5.13;;;;;;;;;;5074737;28;20479;-79
2023/05/14 10:03:29;;;;;;;6.00;5.47;;;;;;;;;;5078763;28;20450;-79
2023/05/14 10:05:56;;;;;;;7.10;6.10;;;;;;;;;;5080249;28;20450;-80
2023/05/14 10:08:25;;;;;;;7.70;5.43;;;;;;;;;;5071357;28;20450;-79
2023/05/14 10:10:52;;;;;;;7.63;5.10;;;;;;;;;;5083184;28;20446;-79
2023/05/14 10:13:20;;;;;;;7.20;5.60;;;;;;;;;;5071694;28;20454;-79
2023/05/14 10:15:49;;;;;;;7.20;5.10;;;;;;;;;;5082899;28;20446;-79
2023/05/14 10:18:17;;;;;;;5.93;5.33;;;;;;;;;;5082403;28;20455;-79
2023/05/14 10:20:44;;;;;;;7.93;5.03;;;;;;;;;;5070306;28;20483;-79
2023/05/14 10:23:11;;;;;;;6.93;4.93;;;;;;;;;;5070523;28;20827;-79
2023/05/14 10:25:37;;;;;;;5.93;5.30;;;;;;;;;;5077807;28;20473;-79
2023/05/14 10:28:05;;;;;;;6.23;4.80;;;;;;;;;;5073394;28;20481;-78
2023/05/14 10:30:32;;;;;;;7.20;5.17;;;;;;;;;;5080093;28;20442;-77
2023/05/14 10:33:09;;;;;;;5.87;5.20;;;;;;;;;;5075855;28;20474;-77
2023/05/14 10:35:54;;;;;;;5.33;4.70;;;;;;;;;;5078738;28;20470;-77
2023/05/14 10:38:22;;;;;;;5.20;4.70;;;;;;;;;;5072857;28;20467;-77
2023/05/14 10:40:49;;;;;;;7.17;5.80;;;;;;;;;;5074729;28;20479;-78
2023/05/14 10:43:15;;;;;;;6.63;5.50;;;;;;;;;;5064294;28;20446;-77
2023/05/14 10:45:43;;;;;;;5.90;5.30;;;;;;;;;;5076939;28;20450;-78
2023/05/14 10:48:11;;;;;;;7.47;5.53;;;;;;;;;;5068227;28;20474;-78
2023/05/14 10:50:38;;;;;;;9.33;5.53;;;;;;;;;;5073686;28;20443;-79
2023/05/14 10:53:05;;;;;;;5.53;5.03;;;;;;;;;;5054437;28;20470;-79
2023/05/14 10:55:31;;;;;;;10.60;5.47;;;;;;;;;;5056556;28;20482;-79
2023/05/14 10:58:00;;;;;;;5.80;5.30;;;;;;;;;;5049862;28;20495;-79
2023/05/14 11:00:27;;;;;;;7.10;4.93;;;;;;;;;;5043320;28;20481;-79
2023/05/14 11:02:56;;;;;;;9.67;5.20;;;;;;;;;;5043640;28;20817;-79
2023/05/14 11:05:26;;;;;;;5.10;4.60;;;;;;;;;;5046342;28;20475;-79
2023/05/14 11:07:55;;;;;;;5.93;5.43;;;;;;;;;;5036644;28;20464;-78
2023/05/14 11:10:22;;;;;;;6.80;5.00;;;;;;;;;;5043068;28;20444;-78
2023/05/14 11:12:49;;;;;;;5.20;4.80;;;;;;;;;;5043973;28;20491;-78
2023/05/14 11:15:17;;;;;;;5.13;4.60;;;;;;;;;;5045105;28;20511;-77
2023/05/14 11:17:44;;;;;;;5.63;4.57;;;;;;;;;;5059102;28;20475;-79
2023/05/14 11:20:11;;;;;;;6.00;5.50;;;;;;;;;;5059720;28;20487;-78
2023/05/14 11:22:40;;;;;;;5.90;5.30;;;;;;;;;;5060497;28;20480;-79
2023/05/14 11:25:07;;;;;;;5.80;5.17;;;;;;;;;;5057324;28;20466;-79
2023/05/14 11:27:34;;;;;;;7.23;5.37;;;;;;;;;;5055069;28;20841;-79
2023/05/14 11:30:01;;;;;;;5.33;4.77;;;;;;;;;;5066568;28;20450;-79
2023/05/14 11:32:27;;;;;;;6.73;4.90;;;;;;;;;;5065093;28;20863;-76
2023/05/14 11:34:53;;;;;;;5.50;5.00;;;;;;;;;;5052910;28;20964;-79
2023/05/14 11:37:20;;;;;;;4.93;4.50;;;;;;;;;;5066908;28;20477;-78
2023/05/14 11:39:49;;;;;;;5.73;4.93;;;;;;;;;;5068682;28;20977;-77
2023/05/14 11:42:17;;;;;;;5.77;5.17;;;;;;;;;;5063711;28;20852;-77
2023/05/14 11:44:44;;;;;;;5.60;5.10;;;;;;;;;;5064437;28;20490;-77
2023/05/14 11:47:11;;;;;;;4.50;4.20;;;;;;;;;;5056808;28;20475;-78
2023/05/14 11:49:37;;;;;;;6.53;5.93;;;;;;;;;;5066955;28;20603;-77
2023/05/14 11:52:04;;;;;;;9.00;4.90;;;;;;;;;;5052881;28;20477;-77
2023/05/14 11:54:31;;;;;;;4.60;4.20;;;;;;;;;;5067995;28;20458;-77
2023/05/14 11:56:59;;;;;;;7.17;5.40;;;;;;;;;;5065767;28;20463;-78
2023/05/14 11:59:27;;;;;;;7.83;6.17;;;;;;;;;;5058635;28;20465;-77
2023/05/14 12:01:54;;;;;;;5.30;4.90;;;;;;;;;;5059481;28;20989;-78
2023/05/14 12:04:21;;;;;;;6.03;5.53;;;;;;;;;;5053600;28;20483;-77
2023/05/14 12:06:48;;;;;;;5.40;4.90;;;;;;;;;;5067628;28;20492;-78
2023/05/14 12:09:16;;;;;;;10.83;5.70;;;;;;;;;;5066188;28;20451;-78
2023/05/14 12:11:42;;;;;;;6.47;5.87;;;;;;;;;;5065303;28;20468;-78
2023/05/14 12:14:14;;;;;;;5.20;4.90;;;;;;;;;;5059909;28;20472;-78
2023/05/14 12:16:41;;;;;;;7.40;4.77;;;;;;;;;;5059412;28;20521;-78
2023/05/14 12:19:08;;;;;;;6.23;5.73;;;;;;;;;;5061898;28;20480;-78
2023/05/14 12:21:35;;;;;;;7.30;5.57;;;;;;;;;;5064239;28;21004;-78
2023/05/14 12:24:02;;;;;;;15.83;5.10;;;;;;;;;;5063555;28;20493;-78
2023/05/14 12:26:28;;;;;;;4.60;4.20;;;;;;;;;;5059296;28;20474;-78
2023/05/14 12:28:57;;;;;;;5.23;4.73;;;;;;;;;;5060043;28;20509;-77
2023/05/14 12:31:29;;;;;;;5.80;5.30;;;;;;;;;;5057378;28;20471;-78
2023/05/14 12:33:55;;;;;;;5.10;4.70;;;;;;;;;;5058956;28;20475;-78
2023/05/14 12:36:22;;;;;;;5.93;5.43;;;;;;;;;;5062644;28;20977;-78
2023/05/14 12:38:49;;;;;;;6.23;5.00;;;;;;;;;;5054539;28;20451;-77
2023/05/14 12:41:15;;;;;;;5.73;4.53;;;;;;;;;;5049052;28;20815;-77
2023/05/14 12:43:42;;;;;;;6.57;5.77;;;;;;;;;;5035174;28;20472;-78
2023/05/14 12:46:09;;;;;;;8.20;4.97;;;;;;;;;;5041120;28;20472;-78
2023/05/14 12:48:37;;;;;;;5.83;4.00;;;;;;;;;;5025432;28;20830;-78
2023/05/14 12:51:03;;;;;;;4.60;4.30;;;;;;;;;;5038452;28;20512;-78
2023/05/14 12:53:30;;;;;;;5.00;4.50;;;;;;;;;;5041099;28;20455;-78
2023/05/14 12:55:56;;;;;;;4.80;4.50;;;;;;;;;;5042986;28;20448;-78
2023/05/14 12:58:23;;;;;;;5.67;5.17;;;;;;;;;;5047174;28;20520;-78
2023/05/14 13:00:49;;;;;;;4.77;4.37;;;;;;;;;;5038722;28;20488;-78
2023/05/14 13:03:15;;;;;;;4.80;4.40;;;;;;;;;;5038385;28;20845;-78
2023/05/14 13:05:43;;;;;;;4.90;4.57;;;;;;;;;;5040664;28;20461;-78
2023/05/14 13:08:10;;;;;;;4.73;4.33;;;;;;;;;;5032876;28;20495;-78
2023/05/14 13:10:36;;;;;;;5.17;4.67;;;;;;;;;;5036074;28;20444;-78
2023/05/14 13:13:02;;;;;;;6.60;5.00;;;;;;;;;;5058248;28;20471;-78
2023/05/14 13:15:30;;;;;;;4.53;4.23;;;;;;;;;;5063277;28;20474;-78
2023/05/14 13:17:56;;;;;;;5.13;4.63;;;;;;;;;;5059158;28;20474;-77
2023/05/14 13:20:24;;;;;;;4.97;4.57;;;;;;;;;;5068975;28;20862;-78
2023/05/14 13:22:52;;;;;;;5.47;4.97;;;;;;;;;;5054263;28;20487;-78
2023/05/14 13:25:18;;;;;;;4.87;4.40;;;;;;;;;;5063736;28;20471;-78
2023/05/14 13:27:44;;;;;;;5.70;4.80;;;;;;;;;;5055561;28;20470;-78
2023/05/14 13:30:11;;;;;;;5.40;4.90;;;;;;;;;;5062319;28;20450;-78
2023/05/14 13:32:37;;;;;;;6.03;4.70;;;;;;;;;;5047588;28;20476;-77
2023/05/14 13:35:04;;;;;;;4.70;4.30;;;;;;;;;;5055408;28;20467;-78
2023/05/14 13:37:30;;;;;;;5.13;4.50;;;;;;;;;;5068611;28;20494;-77
2023/05/14 13:39:58;;;;;;;5.17;4.77;;;;;;;;;;5059274;28;20570;-77
2023/05/14 13:42:25;;;;;;;5.00;4.67;;;;;;;;;;5058264;28;20474;-78
2023/05/14 13:44:52;;;;;;;4.30;4.00;;;;;;;;;;5060592;28;20529;-78
2023/05/14 13:47:18;;;;;;;5.07;4.60;;;;;;;;;;5060647;28;20464;-78
2023/05/14 13:49:44;;;;;;;6.10;5.50;;;;;;;;;;5061361;28;20956;-78
2023/05/14 13:52:11;;;;;;;4.73;4.43;;;;;;;;;;5059178;28;20471;-78
2023/05/14 13:54:37;;;;;;;9.30;5.20;;;;;;;;;;5059677;28;20470;-78
2023/05/14 13:57:05;;;;;;;4.90;4.50;;;;;;;;;;5053102;28;20471;-78
2023/05/14 13:59:31;;;;;;;4.90;4.30;;;;;;;;;;5057566;28;20452;-78
2023/05/14 14:01:58;;;;;;;7.30;4.80;;;;;;;;;;5054133;28;21178;-78
2023/05/14 14:04:27;;;;;;;5.40;4.50;;;;;;;;;;5060016;28;20471;-77
2023/05/14 14:06:54;;;;;;;6.17;4.80;;;;;;;;;;5061022;28;20475;-77
2023/05/14 14:09:20;;;;;;;5.90;5.47;;;;;;;;;;5065441;28;20459;-78
2023/05/14 14:11:47;;;;;;;5.60;5.03;;;;;;;;;;5059329;28;20467;-78
2023/05/14 14:14:14;;;;;;;5.73;5.03;;;;;;;;;;5061510;28;20475;-78
2023/05/14 14:16:41;;;;;;;6.37;5.87;;;;;;;;;;5064289;28;20474;-77
2023/05/14 14:19:07;;;;;;;5.70;5.20;;;;;;;;;;5057028;28;20957;-78
2023/05/14 14:21:34;;;;;;;4.90;4.50;;;;;;;;;;5058321;28;20847;-78
2023/05/14 14:24:00;;;;;;;5.70;5.20;;;;;;;;;;5056489;28;20981;-78
2023/05/14 14:26:28;;;;;;;4.93;4.53;;;;;;;;;;5059244;28;20985;-78
2023/05/14 14:28:54;;;;;;;5.20;4.80;;;;;;;;;;5065794;28;20973;-78
2023/05/14 14:31:22;;;;;;;5.90;5.40;;;;;;;;;;5069020;28;20462;-78